This is the latest recevied weather packets stored in our database for station/object OE-11344. If no packets are shown the sender has not sent any weather packets the latest 10 day(s).
| Time | Temp. | Humidity | Pressure | Rain* | Wind** | Luminosity | Snow |
|---|---|---|---|---|---|---|---|
| 1787952912 | 15.56° C | 85% | 852.8 hPa | 0 mm | - | 0 W/m² | - |
| 1787952312 | 16.11° C | 78% | 852.1 hPa | 0 mm | - | 0 W/m² | - |
| 1787951485 | 17.22° C | 73% | 851.6 hPa | 0 mm | - | 0 W/m² | - |
| 1787951112 | 20° C | 39% | 851.2 hPa | 0 mm | - | 0 W/m² | - |
| 1787950512 | 20.56° C | 38% | 851.2 hPa | 0 mm | - | 0 W/m² | - |
| 1787949686 | 20.56° C | 38% | 851.1 hPa | 0 mm | - | 0 W/m² | - |
| 1787949312 | 20° C | 39% | 851.1 hPa | 0 mm | - | 0 W/m² | - |
| 1787948712 | 20.56° C | 38% | 851 hPa | 0 mm | - | 0 W/m² | - |
| 1787947885 | 17.78° C | 62% | 850.8 hPa | 0 mm | - | 0 W/m² | - |
| 1787947511 | 15.56° C | 85% | 850.8 hPa | 0 mm | - | 0 W/m² | - |
| 1787946912 | 16.11° C | 83% | 851.1 hPa | 0 mm | - | 0 W/m² | - |
| 1787946086 | 16.11° C | 84% | 851.3 hPa | 0 mm | - | 0 W/m² | - |
| 1787945712 | 16.11° C | 84% | 851.3 hPa | 0 mm | - | 0 W/m² | - |
| 1787945111 | 16.11° C | 84% | 851.1 hPa | 0 mm | - | 0 W/m² | - |
| 1787944285 | 16.11° C | 83% | 851.1 hPa | 0 mm | - | 0 W/m² | - |
| 1787943912 | 17.22° C | 80% | 851.2 hPa | 0 mm | - | 0 W/m² | - |
| 1787943311 | 17.22° C | 80% | 851.3 hPa | 0 mm | - | 0 W/m² | - |
| 1787942485 | 17.22° C | 80% | 851.7 hPa | 0 mm | - | 0 W/m² | - |
| 1787941507 | 17.78° C | 77% | 851.8 hPa | 0 mm | - | 0 W/m² | - |
| 1787940685 | 18.33° C | 76% | 850.9 hPa | 0 mm | - | 0 W/m² | - |
| 1787940311 | 18.33° C | 76% | 851 hPa | 0 mm | - | 6 W/m² | - |
| 1787939711 | 18.33° C | 74% | 851 hPa | 0 mm | - | 12 W/m² | - |
| 1787938885 | 18.89° C | 72% | 851.2 hPa | 0 mm | - | 18 W/m² | - |
| 1787938512 | 19.44° C | 71% | 850.9 hPa | 0 mm | - | 24 W/m² | - |
| 1787937912 | 20° C | 67% | 850.8 hPa | 0 mm | - | 36 W/m² | - |
* Rain latest hour (hover to see other rain measurements)
** Current wind speed in m/s (hover to see current wind gust speed)